Hazelhurst, Wisconsin
Current Conditions -  °F | °C
As of 10:15 PM on Friday 19 Dec 2014 (Local Time) from KARV Reporting Station
Overcast Overcast  
Wind Chill: 23°   Ceiling: 800
Heat Index: 23°   Visibility: 10mi
Dew Point: 20°   Wind: 0mph
Humidity: 90%   Direction: NA
Pressure: 30.18"   Gusts: NA
Location:  45.81°N, 89.73°W
Report Text: KARV 200415Z AUTO 00000KT 10SM OVC008 M05/M07 A3018 RMK AO2 T10521066
Loading
Personal Weather Stations






























Interactive Weather Map New forecast layout! Learn more

10-Day Weather Forecast

Advertisements
Track Severe Weather on mobile